Time;durP1;ratioP1;P1;durP2;ratioP2;P2;SDS_P1;SDS_P2;PMS_P1;PMS_P2;Temp;Humidity;BMP_temperature;BMP_pressure;BME280_temperature;BME280_humidity;BME280_pressure;Samples;Min_cycle;Max_cycle;Signal;HPM_P1;HPM_P2
2021/12/13 00:01:33;;;;;;;15.65;5.65;;;;;;;8.41;68.87;98243.69;4955357;28;20183;-80
2021/12/13 00:04:09;;;;;;;9.35;5.60;;;;;;;8.51;68.40;98243.28;4962119;28;20162;-80
2021/12/13 00:06:40;;;;;;;20.08;5.95;;;;;;;8.54;68.38;98247.28;4964266;28;20191;-80
2021/12/13 00:09:12;;;;;;;11.73;5.10;;;;;;;8.38;68.88;98249.28;4963491;28;20659;-80
2021/12/13 00:11:41;;;;;;;9.18;4.72;;;;;;;8.57;68.28;98246.88;4995325;28;20214;-80
2021/12/13 00:14:10;;;;;;;8.50;5.07;;;;;;;8.54;67.99;98247.28;4993960;28;20197;-80
2021/12/13 00:16:40;;;;;;;20.90;6.70;;;;;;;8.50;68.62;98244.28;4986760;28;20253;-80
2021/12/13 00:19:14;;;;;;;12.55;5.47;;;;;;;8.48;68.87;98242.88;4984247;28;20235;-80
2021/12/13 00:21:44;;;;;;;9.60;5.97;;;;;;;8.53;68.68;98249.06;4986854;28;20274;-80
2021/12/13 00:24:20;;;;;;;8.73;4.80;;;;;;;8.54;68.23;98255.84;4969907;28;20232;-80
2021/12/13 00:26:47;;;;;;;11.35;5.82;;;;;;;8.59;68.26;98250.06;4969074;28;20771;-80
2021/12/13 00:29:23;;;;;;;9.77;4.60;;;;;;;8.41;68.58;98255.84;5002206;28;20124;-79
2021/12/13 00:31:48;;;;;;;;;;;;;;;8.19;69.23;98255.28;4993424;28;20197;-79
2021/12/13 00:34:39;;;;;;;16.02;5.22;;;;;;;8.44;68.97;98250.28;5002692;28;20184;-80
2021/12/13 00:37:16;;;;;;;35.60;6.10;;;;;;;8.33;68.54;98254.28;4998634;28;20538;-80
2021/12/13 00:39:51;;;;;;;12.43;5.18;;;;;;;8.32;68.97;98242.28;4999219;28;20691;-79
2021/12/13 00:42:16;;;;;;;;;;;;;;;8.18;69.69;98246.72;4992220;28;20255;-79
2021/12/13 00:44:47;;;;;;;14.50;5.30;;;;;;;8.37;69.09;98245.09;4988889;28;20200;-79
2021/12/13 00:47:27;;;;;;;11.88;5.00;;;;;;;8.38;68.61;98249.28;4980333;28;20073;-79
2021/12/13 00:49:55;;;;;;;11.65;5.05;;;;;;;8.54;68.36;98242.88;5017427;28;20162;-80
2021/12/13 00:52:21;;;;;;;9.57;5.13;;;;;;;8.53;68.85;98250.88;4985249;28;20770;-80
2021/12/13 00:54:47;;;;;;;17.27;5.25;;;;;;;8.51;68.66;98252.88;4965566;28;20278;-79
2021/12/13 00:57:40;;;;;;;8.43;4.93;;;;;;;8.28;69.20;98245.50;5004182;28;20611;-80
2021/12/13 01:00:14;;;;;;;9.68;5.20;;;;;;;8.40;69.06;98244.69;4982596;28;20301;-80
2021/12/13 01:02:43;;;;;;;12.35;5.78;;;;;;;8.56;68.42;98246.06;4986262;28;20783;-79
2021/12/13 01:05:09;;;;;;;8.70;4.75;;;;;;;8.61;68.31;98243.66;4990433;28;20702;-80
2021/12/13 01:07:52;;;;;;;11.85;4.80;;;;;;;8.42;68.58;98239.28;4999900;28;20278;-80
2021/12/13 01:10:56;;;;;;;9.07;4.32;;;;;;;8.48;68.66;98246.28;5007030;28;20291;-80
2021/12/13 01:13:27;;;;;;;10.40;5.32;;;;;;;8.63;68.51;98252.03;4995597;28;20594;-79
2021/12/13 01:21:39;;;;;;;8.98;4.53;;;;;;;8.50;68.50;98266.84;4999968;28;20706;-79
2021/12/13 01:24:15;;;;;;;11.10;5.00;;;;;;;8.43;68.39;98272.84;4966395;28;20697;-80
2021/12/13 01:26:46;;;;;;;9.05;4.90;;;;;;;8.50;68.64;98285.81;4970583;28;20640;-80
2021/12/13 01:29:14;;;;;;;9.40;5.18;;;;;;;8.47;68.36;98278.44;5004289;28;20279;-79
2021/12/13 01:31:53;;;;;;;8.32;4.68;;;;;;;8.36;68.58;98277.25;4984099;28;20210;-79
2021/12/13 01:34:19;;;;;;;9.18;4.88;;;;;;;8.56;68.73;98274.59;4989989;28;20304;-80
2021/12/13 01:37:01;;;;;;;7.35;4.60;;;;;;;8.51;68.94;98273.63;4958472;28;20198;-80
2021/12/13 01:39:29;;;;;;;15.30;4.65;;;;;;;8.56;68.58;98279.00;5003941;28;20701;-79
2021/12/13 01:42:01;;;;;;;7.22;4.25;;;;;;;8.60;68.36;98272.41;4955771;28;20570;-80
2021/12/13 01:44:33;;;;;;;12.60;5.18;;;;;;;8.48;68.48;98277.41;4960489;28;20267;-80
2021/12/13 01:47:05;;;;;;;8.60;4.35;;;;;;;8.55;69.05;98274.81;4985409;28;20300;-79
2021/12/13 01:49:36;;;;;;;8.32;4.20;;;;;;;8.56;68.78;98285.00;4989186;28;20158;-79
2021/12/13 01:52:06;;;;;;;9.15;4.70;;;;;;;8.69;67.77;98284.19;4989270;28;20211;-79
2021/12/13 01:54:31;;;;;;;39.45;6.85;;;;;;;8.81;67.69;98294.72;4988575;28;20257;-80
2021/12/13 02:00:07;;;;;;;10.60;4.40;;;;;;;8.65;67.76;98282.19;4980772;28;20162;-79
2021/12/13 02:02:37;;;;;;;17.95;4.45;;;;;;;8.73;67.87;98287.94;4984998;28;20708;-79
2021/12/13 02:05:09;;;;;;;30.90;5.13;;;;;;;8.67;68.12;98288.78;5002273;28;20221;-79
2021/12/13 02:07:41;;;;;;;12.48;5.00;;;;;;;8.69;68.11;98298.94;5005462;28;20276;-79
2021/12/13 02:10:12;;;;;;;7.43;3.72;;;;;;;8.66;67.20;98287.19;5002143;28;20658;-79
2021/12/13 02:12:40;;;;;;;7.43;4.43;;;;;;;8.70;68.32;98283.16;4991132;28;20229;-79
2021/12/13 02:17:52;;;;;;;11.98;4.50;;;;;;;8.63;68.23;98288.38;4999614;28;20272;-79
2021/12/13 02:20:26;;;;;;;12.40;4.32;;;;;;;8.43;68.16;98283.25;4970809;28;20085;-79
2021/12/13 02:22:52;;;;;;;8.57;3.90;;;;;;;8.62;68.37;98288.59;5005891;28;20212;-79
2021/12/13 02:25:45;;;;;;;11.18;4.85;;;;;;;8.40;68.81;98283.59;4987971;28;20158;-79
2021/12/13 02:28:15;;;;;;;8.85;3.95;;;;;;;8.54;68.67;98283.63;5004517;28;20196;-79
2021/12/13 02:31:02;;;;;;;24.00;5.05;;;;;;;8.50;68.12;98282.41;4974962;28;20167;-79
2021/12/13 02:33:36;;;;;;;7.05;4.18;;;;;;;8.47;68.67;98288.81;4999864;28;20201;-79
2021/12/13 02:36:06;;;;;;;8.90;4.32;;;;;;;8.51;68.92;98284.03;5004944;28;20180;-79
2021/12/13 02:38:32;;;;;;;14.32;4.35;;;;;;;8.56;68.72;98281.59;4998348;28;20658;-79
2021/12/13 02:40:58;;;;;;;10.52;4.00;;;;;;;8.56;68.62;98286.81;5004675;28;20638;-79
2021/12/13 02:43:35;;;;;;;10.20;5.28;;;;;;;8.36;68.77;98287.63;4992670;28;20161;-79
2021/12/13 02:46:01;;;;;;;7.95;4.18;;;;;;;8.61;68.76;98285.19;5008353;28;20231;-79
2021/12/13 02:48:52;;;;;;;17.23;4.78;;;;;;;8.46;68.65;98281.22;5001464;28;20275;-79
2021/12/13 02:51:26;;;;;;;14.80;4.18;;;;;;;8.54;68.74;98283.63;5008405;28;20413;-79
2021/12/13 02:53:58;;;;;;;9.93;4.22;;;;;;;8.56;68.63;98271.22;4987020;28;20177;-79
2021/12/13 02:56:32;;;;;;;13.23;4.20;;;;;;;8.55;68.50;98280.00;5004772;28;20205;-79
2021/12/13 02:58:58;;;;;;;7.35;3.83;;;;;;;8.59;68.68;98286.41;5016061;28;20103;-79
2021/12/13 03:01:46;;;;;;;13.48;4.22;;;;;;;8.37;69.10;98276.22;4996715;28;20198;-79
2021/12/13 03:04:16;;;;;;;34.45;5.68;;;;;;;8.49;68.56;98270.44;4970919;28;20645;-79
2021/12/13 03:06:59;;;;;;;7.18;3.65;;;;;;;8.50;68.84;98272.84;5004575;28;20615;-79
2021/12/13 03:09:29;;;;;;;7.72;4.28;;;;;;;8.46;68.73;98266.44;5004354;28;20205;-79
2021/12/13 03:11:56;;;;;;;11.85;4.00;;;;;;;8.59;68.85;98273.41;5004412;28;20230;-79
2021/12/13 03:14:25;;;;;;;28.58;5.18;;;;;;;8.51;68.47;98268.44;4987279;28;20212;-79
2021/12/13 03:17:03;;;;;;;20.95;5.13;;;;;;;8.45;68.82;98272.66;4987554;28;20623;-79
2021/12/13 03:19:36;;;;;;;39.13;5.20;;;;;;;8.60;68.02;98267.22;4970834;28;20312;-79
2021/12/13 03:22:38;;;;;;;33.63;5.50;;;;;;;8.30;68.69;98257.28;4969424;28;20224;-79
2021/12/13 03:25:09;;;;;;;14.40;4.47;;;;;;;8.36;68.65;98271.22;4970207;28;20657;-79
2021/12/13 03:27:44;;;;;;;18.33;3.97;;;;;;;8.35;68.84;98272.25;4980755;28;20252;-79
2021/12/13 03:30:17;;;;;;;95.05;8.85;;;;;;;8.30;68.90;98266.88;4987098;28;20307;-79
2021/12/13 03:32:49;;;;;;;4.65;2.85;;;;;;;8.33;68.73;98267.25;4987305;28;20190;-79
2021/12/13 03:35:58;;;;;;;8.75;3.33;;;;;;;8.30;68.81;98272.84;4970618;28;20657;-79
2021/12/13 03:38:34;;;;;;;25.08;4.18;;;;;;;8.31;68.86;98277.03;4989726;28;20158;-79
2021/12/13 03:41:05;;;;;;;14.43;4.00;;;;;;;8.37;68.54;98263.25;4988496;28;20212;-79
2021/12/13 03:43:37;;;;;;;15.80;4.15;;;;;;;8.31;69.03;98271.84;4986507;28;20225;-79
2021/12/13 03:46:05;;;;;;;70.82;9.48;;;;;;;8.28;69.09;98268.84;5013639;28;20251;-79
2021/12/13 03:48:31;;;;;;;41.42;6.18;;;;;;;8.36;69.15;98272.03;4982641;28;20386;-79
2021/12/13 03:51:03;;;;;;;5.72;3.30;;;;;;;8.30;69.05;98264.28;4970427;28;20331;-79
2021/12/13 03:53:30;;;;;;;16.02;4.07;;;;;;;8.34;68.87;98266.25;4988423;28;20326;-79
2021/12/13 03:56:04;;;;;;;19.60;4.53;;;;;;;8.32;68.84;98267.47;4997447;28;20742;-79
2021/12/13 03:58:35;;;;;;;13.05;3.20;;;;;;;8.36;69.15;98271.22;4988563;28;20271;-79
2021/12/13 04:01:06;;;;;;;9.05;3.22;;;;;;;8.41;68.71;98268.81;4954021;28;20109;-79
2021/12/13 04:03:33;;;;;;;24.80;3.75;;;;;;;8.43;68.57;98272.03;5002498;28;20286;-79
2021/12/13 04:05:58;;;;;;;10.30;3.22;;;;;;;8.39;69.14;98265.63;4998481;28;20099;-79
2021/12/13 04:08:25;;;;;;;10.32;2.65;;;;;;;8.36;68.82;98261.66;5003077;28;20291;-79
2021/12/13 04:10:54;;;;;;;9.05;2.17;;;;;;;8.33;68.90;98259.47;4989645;28;20644;-79
2021/12/13 04:13:23;;;;;;;5.95;1.98;;;;;;;8.31;69.08;98268.44;4986451;28;20078;-78
2021/12/13 04:21:16;;;;;;;35.35;4.07;;;;;;;8.26;68.90;98263.88;5025372;28;20248;-79
2021/12/13 04:23:49;;;;;;;8.63;2.20;;;;;;;8.11;69.41;98266.69;4990424;28;20167;-79
2021/12/13 04:26:14;;;;;;;20.42;2.42;;;;;;;8.31;69.05;98263.25;4981768;28;20192;-79
2021/12/13 04:28:43;;;;;;;16.98;2.70;;;;;;;8.29;69.24;98266.06;4994240;28;20276;-79
2021/12/13 04:31:13;;;;;;;17.00;2.42;;;;;;;8.21;69.33;98268.88;5008856;28;20193;-79
2021/12/13 04:33:42;;;;;;;9.63;1.92;;;;;;;8.23;69.10;98257.28;4999057;28;20259;-79
2021/12/13 04:36:16;;;;;;;57.75;6.03;;;;;;;8.14;69.04;98270.66;4999311;28;20213;-79
2021/12/13 04:38:48;;;;;;;13.65;2.35;;;;;;;8.35;69.64;98270.44;4967144;28;20239;-79
2021/12/13 04:41:24;;;;;;;27.88;3.28;;;;;;;8.29;68.56;98263.44;4985530;28;20724;-79
2021/12/13 04:43:55;;;;;;;5.07;1.90;;;;;;;8.33;68.73;98267.25;4979494;28;20267;-79
2021/12/13 04:46:21;;;;;;;5.00;2.00;;;;;;;8.42;67.99;98267.84;4993357;28;20239;-79
2021/12/13 04:48:49;;;;;;;15.32;2.72;;;;;;;8.36;68.31;98266.84;5005417;28;20622;-79
2021/12/13 04:51:16;;;;;;;5.85;1.40;;;;;;;8.37;68.17;98271.03;5011200;28;20757;-79
2021/12/13 04:53:48;;;;;;;35.95;3.47;;;;;;;8.22;68.80;98279.03;4973515;28;20200;-79
2021/12/13 04:56:16;;;;;;;33.33;4.35;;;;;;;8.30;67.90;98277.25;4987066;28;20166;-79
2021/12/13 04:58:45;;;;;;;9.60;1.75;;;;;;;8.21;68.66;98269.66;4996772;28;20652;-79
2021/12/13 05:01:12;;;;;;;44.85;4.18;;;;;;;8.21;68.50;98281.84;4991969;28;20187;-79
2021/12/13 05:03:44;;;;;;;20.63;2.42;;;;;;;8.11;68.22;98276.28;5006318;28;20282;-79
2021/12/13 05:06:17;;;;;;;27.90;3.22;;;;;;;8.09;68.91;98280.84;5004209;28;20200;-79
2021/12/13 05:08:48;;;;;;;2.88;1.38;;;;;;;8.09;68.78;98276.47;4990045;28;20274;-79
2021/12/13 05:11:17;;;;;;;7.13;1.85;;;;;;;8.23;68.69;98279.84;4990581;28;20325;-79
2021/12/13 05:14:03;;;;;;;4.35;1.40;;;;;;;8.09;68.94;98283.44;4989838;28;20209;-79
2021/12/13 05:16:31;;;;;;;;;;;;;;;7.87;69.22;98287.03;4990648;28;20196;-79
2021/12/13 05:18:57;;;;;;;8.85;1.40;;;;;;;8.15;68.84;98280.03;5008416;28;20158;-79
2021/12/13 05:21:45;;;;;;;14.07;1.50;;;;;;;7.96;69.34;98282.44;5008302;28;20192;-79
2021/12/13 05:24:19;;;;;;;4.00;1.30;;;;;;;8.15;68.25;98286.03;4972580;28;20195;-79
2021/12/13 05:26:54;;;;;;;41.65;3.72;;;;;;;8.09;68.47;98291.22;5016885;28;20308;-79
2021/12/13 05:29:47;;;;;;;25.48;2.40;;;;;;;7.94;68.91;98287.03;5001163;28;20270;-79
2021/12/13 05:32:25;;;;;;;3.95;1.35;;;;;;;7.97;68.80;98297.03;4974055;28;20266;-79
2021/12/13 05:34:57;;;;;;;3.35;1.08;;;;;;;8.06;68.58;98298.41;5022709;28;20650;-79
2021/12/13 05:37:24;;;;;;;10.45;1.55;;;;;;;8.18;68.57;98290.03;4999690;28;20193;-79
2021/12/13 05:39:57;;;;;;;4.18;1.33;;;;;;;8.05;68.80;98299.41;4989519;28;20217;-79
2021/12/13 05:42:33;;;;;;;16.23;2.05;;;;;;;7.92;69.03;98296.00;5005924;28;20227;-79
2021/12/13 05:44:59;;;;;;;14.88;1.90;;;;;;;8.02;68.70;98304.19;4988048;28;20170;-79
2021/12/13 05:47:27;;;;;;;2.88;1.00;;;;;;;8.06;68.96;98302.81;5000198;28;20202;-78
2021/12/13 05:49:53;;;;;;;2.50;1.05;;;;;;;8.11;68.83;98304.81;5001024;28;20247;-79
2021/12/13 05:52:26;;;;;;;4.35;1.23;;;;;;;8.03;68.86;98309.16;4989477;28;20376;-79
2021/12/13 05:54:58;;;;;;;6.32;1.38;;;;;;;7.99;68.78;98312.38;5004781;28;20189;-79
2021/12/13 05:57:36;;;;;;;1.73;0.80;;;;;;;8.00;69.25;98313.97;4996038;28;20263;-79
2021/12/13 06:00:17;;;;;;;9.93;1.70;;;;;;;7.94;69.06;98310.38;4989965;28;20177;-79
2021/12/13 06:03:09;;;;;;;5.45;1.30;;;;;;;7.99;68.86;98313.16;4978355;28;20290;-79
2021/12/13 06:05:41;;;;;;;33.05;2.95;;;;;;;7.96;68.72;98315.38;4998100;28;20331;-79
2021/12/13 06:08:13;;;;;;;4.05;0.88;;;;;;;7.90;68.96;98322.16;5000434;28;20190;-78
2021/12/13 06:10:46;;;;;;;22.90;2.20;;;;;;;7.99;68.70;98320.94;5005948;28;20231;-79
2021/12/13 06:13:21;;;;;;;17.60;1.65;;;;;;;7.93;69.07;98323.53;4987050;28;20852;-78
2021/12/13 06:15:47;;;;;;;2.22;1.15;;;;;;;8.11;68.89;98325.56;5003228;28;20188;-79
2021/12/13 06:18:16;;;;;;;21.58;2.83;;;;;;;8.05;68.35;98333.13;5004314;28;20209;-79
2021/12/13 06:21:22;;;;;;;23.70;2.17;;;;;;;7.80;69.09;98332.13;5005547;28;20911;-79
2021/12/13 06:23:48;;;;;;;4.35;1.00;;;;;;;7.95;68.75;98319.75;4984830;28;20178;-79
2021/12/13 06:26:14;;;;;;;10.25;1.63;;;;;;;8.00;68.62;98325.16;5000512;28;20279;-79
2021/12/13 06:28:45;;;;;;;7.72;0.98;;;;;;;7.91;68.92;98321.13;4995678;28;20281;-79
2021/12/13 06:31:14;;;;;;;13.68;1.60;;;;;;;7.94;68.37;98331.13;4958090;28;20722;-79
2021/12/13 06:33:54;;;;;;;5.07;1.25;;;;;;;7.83;68.96;98335.09;4971995;28;20167;-78
2021/12/13 06:36:26;;;;;;;2.13;1.35;;;;;;;7.84;69.26;98336.69;4995663;28;20200;-79
2021/12/13 06:38:55;;;;;;;1.65;0.98;;;;;;;7.88;69.23;98343.09;5020890;28;20205;-79
2021/12/13 06:41:27;;;;;;;11.25;2.00;;;;;;;7.82;68.78;98337.91;5014132;28;20212;-79
2021/12/13 06:44:05;;;;;;;3.95;1.23;;;;;;;7.83;69.09;98337.69;4988830;28;20681;-78
2021/12/13 06:46:53;;;;;;;4.22;1.50;;;;;;;7.72;69.10;98332.28;5004596;28;20200;-79
2021/12/13 06:49:29;;;;;;;1.95;1.05;;;;;;;7.87;69.13;98331.13;5000148;28;20456;-79
2021/12/13 06:52:03;;;;;;;6.63;1.52;;;;;;;7.82;69.06;98335.31;4988912;28;20750;-79
2021/12/13 06:54:33;;;;;;;3.97;1.25;;;;;;;7.89;69.12;98336.09;5006468;28;20190;-78
2021/12/13 06:57:10;;;;;;;2.35;0.90;;;;;;;7.82;69.09;98340.50;5005409;28;20340;-79
2021/12/13 06:59:46;;;;;;;4.90;1.20;;;;;;;7.79;68.96;98339.06;5007763;28;20764;-79
2021/12/13 07:02:18;;;;;;;1.92;1.05;;;;;;;7.93;68.99;98337.28;4988866;28;20443;-79
2021/12/13 07:04:52;;;;;;;6.55;1.13;;;;;;;7.85;68.82;98340.09;4985593;28;20542;-78
2021/12/13 07:07:19;;;;;;;6.40;1.48;;;;;;;7.90;68.70;98342.09;4998309;28;20284;-79
2021/12/13 07:09:54;;;;;;;1.75;1.10;;;;;;;7.86;68.65;98336.50;5004323;28;20255;-79
2021/12/13 07:12:21;;;;;;;3.90;1.20;;;;;;;7.95;68.85;98332.72;4987449;28;20285;-79
2021/12/13 07:14:47;;;;;;;5.82;1.30;;;;;;;7.90;68.90;98334.31;5016827;28;20631;-78
2021/12/13 07:17:27;;;;;;;2.17;0.93;;;;;;;7.76;68.75;98336.09;4988638;28;20250;-79
2021/12/13 07:19:53;;;;;;;1.75;1.20;;;;;;;7.98;69.03;98334.91;4973077;28;20092;-78
2021/12/13 07:22:25;;;;;;;2.88;1.15;;;;;;;7.86;68.75;98342.50;4970460;28;20276;-78
2021/12/13 07:24:54;;;;;;;2.50;1.35;;;;;;;7.87;68.93;98340.69;5003664;28;20155;-79
2021/12/13 07:27:29;;;;;;;3.00;1.35;;;;;;;7.80;68.88;98348.47;4987601;28;20092;-79
2021/12/13 07:30:04;;;;;;;7.78;1.75;;;;;;;7.86;68.61;98347.69;4985563;28;20274;-79
2021/12/13 07:32:37;;;;;;;3.80;1.10;;;;;;;7.90;68.61;98361.06;4997243;28;20181;-79
2021/12/13 07:35:20;;;;;;;2.08;1.30;;;;;;;7.98;68.57;98357.47;4982706;28;20185;-79
2021/12/13 07:38:00;;;;;;;5.50;1.58;;;;;;;7.89;68.64;98364.63;5000706;28;20673;-79
2021/12/13 07:40:26;;;;;;;2.75;1.25;;;;;;;8.03;68.57;98365.44;5003997;28;20670;-79
2021/12/13 07:43:20;;;;;;;11.40;1.77;;;;;;;7.80;68.93;98365.81;5004574;28;20454;-78
2021/12/13 07:45:52;;;;;;;3.00;1.40;;;;;;;7.84;68.92;98356.66;4997137;28;20701;-79
2021/12/13 07:48:21;;;;;;;5.88;1.48;;;;;;;7.92;69.09;98361.66;5005193;28;20414;-79
2021/12/13 07:51:04;;;;;;;4.00;1.60;;;;;;;7.84;69.45;98369.59;4984934;28;20648;-79
2021/12/13 07:53:51;;;;;;;6.43;1.35;;;;;;;7.84;68.88;98354.84;5003981;28;20280;-79
2021/12/13 07:56:24;;;;;;;2.03;1.20;;;;;;;7.91;68.99;98359.25;5003708;28;20265;-79
2021/12/13 07:59:17;;;;;;;3.47;1.38;;;;;;;7.94;68.71;98364.03;4986592;28;20205;-79
2021/12/13 08:02:08;;;;;;;16.83;2.15;;;;;;;7.89;69.20;98364.63;5001687;28;20294;-79
2021/12/13 08:04:36;;;;;;;5.85;1.55;;;;;;;8.10;68.58;98373.22;4998491;28;20320;-79
2021/12/13 08:07:26;;;;;;;4.13;1.10;;;;;;;8.02;69.13;98364.66;5003840;28;20696;-79
2021/12/13 08:10:05;;;;;;;2.28;1.33;;;;;;;8.16;68.53;98362.06;4990848;28;20359;-79
2021/12/13 08:12:38;;;;;;;2.53;1.38;;;;;;;8.19;68.52;98359.06;4971465;28;20224;-79
2021/12/13 08:15:17;;;;;;;8.40;1.55;;;;;;;8.16;68.62;98362.06;5012586;28;20273;-79
2021/12/13 08:17:49;;;;;;;17.63;2.13;;;;;;;8.21;68.68;98367.47;4997051;28;20222;-79
2021/12/13 08:20:28;;;;;;;2.35;1.00;;;;;;;8.13;68.36;98367.66;4990258;28;20170;-79
2021/12/13 08:22:54;;;;;;;4.22;1.08;;;;;;;8.29;68.40;98369.84;4974117;28;20192;-79
2021/12/13 08:25:29;;;;;;;2.67;0.90;;;;;;;8.21;68.38;98377.84;4989652;28;20232;-79
2021/12/13 08:28:15;;;;;;;7.75;1.58;;;;;;;8.12;68.85;98371.22;4990661;28;20687;-79
2021/12/13 08:30:53;;;;;;;23.35;2.65;;;;;;;8.16;68.91;98364.66;4994643;28;20306;-79
2021/12/13 08:33:24;;;;;;;4.78;1.05;;;;;;;8.34;68.82;98372.63;4999745;28;20300;-79
2021/12/13 08:35:55;;;;;;;17.63;1.98;;;;;;;8.32;68.83;98369.44;4990410;28;20276;-79
2021/12/13 08:38:34;;;;;;;2.53;1.20;;;;;;;8.15;68.96;98369.03;5007269;28;20189;-79
2021/12/13 08:41:15;;;;;;;2.08;1.30;;;;;;;8.27;68.92;98371.06;4990242;28;20344;-79
2021/12/13 08:44:02;;;;;;;4.53;1.20;;;;;;;8.34;68.70;98367.44;5006145;28;20212;-79
2021/12/13 08:46:30;;;;;;;9.68;1.42;;;;;;;8.37;68.72;98372.25;5006767;28;20204;-79
2021/12/13 08:48:56;;;;;;;3.42;1.20;;;;;;;8.53;68.39;98370.25;5008848;28;20184;-79
2021/12/13 08:51:24;;;;;;;5.03;1.65;;;;;;;8.48;68.78;98368.25;5003355;28;20287;-79
2021/12/13 08:54:04;;;;;;;3.05;0.95;;;;;;;8.37;68.49;98377.44;4981507;28;20199;-79
2021/12/13 08:56:35;;;;;;;5.75;1.45;;;;;;;8.39;68.63;98372.81;4973180;28;20162;-79
2021/12/13 08:59:09;;;;;;;5.97;1.55;;;;;;;8.42;68.86;98375.06;4980478;28;20269;-79
2021/12/13 09:01:41;;;;;;;2.00;1.42;;;;;;;8.46;68.69;98359.09;4986685;28;20111;-79
2021/12/13 09:04:08;;;;;;;4.63;1.50;;;;;;;8.61;68.83;98367.47;4984201;28;20690;-79
2021/12/13 09:06:34;;;;;;;2.33;1.48;;;;;;;8.68;68.59;98375.25;5004208;28;20205;-78
2021/12/13 09:09:09;;;;;;;4.05;1.20;;;;;;;8.65;68.59;98373.06;5004741;28;20162;-79
2021/12/13 09:11:40;;;;;;;2.05;1.20;;;;;;;8.69;68.49;98372.44;5006380;28;20643;-79
2021/12/13 09:14:20;;;;;;;2.00;1.27;;;;;;;8.83;68.93;98372.44;4981542;28;20291;-79
2021/12/13 09:17:07;;;;;;;2.13;1.40;;;;;;;8.93;68.25;98375.41;4996541;28;20158;-79
2021/12/13 09:19:55;;;;;;;3.00;1.42;;;;;;;9.11;67.50;98380.72;5004399;28;20310;-79
2021/12/13 09:22:38;;;;;;;1.90;1.08;;;;;;;9.35;66.75;98383.66;4973802;28;20200;-79
2021/12/13 09:25:15;;;;;;;4.07;1.65;;;;;;;9.47;66.28;98384.59;5003088;28;20282;-79
2021/12/13 09:27:40;;;;;;;2.10;1.10;;;;;;;9.66;65.76;98388.09;5004755;28;20173;-79
2021/12/13 09:30:12;;;;;;;9.93;1.83;;;;;;;9.50;66.04;98380.81;4991679;28;20936;-79
2021/12/13 09:32:54;;;;;;;2.88;1.10;;;;;;;9.65;66.25;98393.53;5004635;28;20285;-79
2021/12/13 09:35:33;;;;;;;2.15;1.15;;;;;;;9.56;66.18;98385.97;5003980;28;20650;-79
2021/12/13 09:38:17;;;;;;;3.47;1.75;;;;;;;9.54;66.28;98388.00;4985363;28;20327;-79
2021/12/13 09:40:43;;;;;;;3.90;1.95;;;;;;;9.63;66.51;98385.13;5006593;28;20106;-79
2021/12/13 09:43:09;;;;;;;5.38;2.08;;;;;;;9.66;66.41;98387.31;4991568;28;20189;-79
2021/12/13 09:45:40;;;;;;;5.30;2.40;;;;;;;9.49;66.90;98390.41;4992429;28;20581;-79
2021/12/13 09:48:26;;;;;;;4.88;2.13;;;;;;;9.55;66.73;98388.78;4977821;28;20184;-79
2021/12/13 09:50:57;;;;;;;3.40;2.45;;;;;;;9.70;66.47;98394.50;5004437;28;20196;-79
2021/12/13 09:53:31;;;;;;;2.88;1.85;;;;;;;9.68;66.67;98390.50;5004308;28;20666;-79
2021/12/13 09:56:00;;;;;;;14.48;3.17;;;;;;;9.78;66.42;98393.44;4983086;28;20198;-79
2021/12/13 09:58:37;;;;;;;3.88;2.17;;;;;;;9.78;66.38;98396.03;5003091;28;20202;-78
2021/12/13 10:01:20;;;;;;;7.03;2.10;;;;;;;9.75;66.02;98388.69;4971343;28;20210;-79
2021/12/13 10:03:57;;;;;;;4.22;1.90;;;;;;;9.83;66.11;98385.81;4987601;28;20198;-79
2021/12/13 10:06:39;;;;;;;6.03;2.83;;;;;;;9.74;66.46;98380.06;4970576;28;20354;-79
2021/12/13 10:09:13;;;;;;;3.63;2.03;;;;;;;9.91;66.38;98388.19;4987981;28;20194;-79
2021/12/13 10:11:46;;;;;;;4.82;2.58;;;;;;;9.93;66.30;98383.56;4981225;28;20258;-79
2021/12/13 10:14:12;;;;;;;4.07;2.17;;;;;;;10.02;66.37;98389.28;4991005;28;20457;-79
2021/12/13 10:16:41;;;;;;;3.15;2.22;;;;;;;10.09;66.50;98378.84;4957327;28;20301;-79
2021/12/13 10:19:09;;;;;;;4.53;2.70;;;;;;;10.26;66.06;98385.16;4985363;28;20263;-79
2021/12/13 10:21:42;;;;;;;4.55;2.85;;;;;;;10.16;66.12;98374.41;4978884;28;20261;-79
2021/12/13 10:24:25;;;;;;;5.25;2.50;;;;;;;10.09;66.63;98377.06;5013936;28;20400;-79
2021/12/13 10:26:52;;;;;;;6.78;2.65;;;;;;;10.36;65.30;98376.09;4998615;28;20700;-79
2021/12/13 10:29:19;;;;;;;5.82;3.03;;;;;;;10.30;65.67;98373.28;4996644;28;20242;-79
2021/12/13 10:31:50;;;;;;;5.97;2.60;;;;;;;10.17;65.92;98370.78;5002273;28;20217;-79
2021/12/13 10:34:22;;;;;;;6.10;3.28;;;;;;;10.27;65.60;98370.31;4982626;28;20651;-79
2021/12/13 10:36:52;;;;;;;5.00;2.90;;;;;;;10.28;65.77;98377.91;4996039;28;20745;-79
2021/12/13 10:39:28;;;;;;;5.68;3.03;;;;;;;10.26;65.60;98371.31;4996807;28;20106;-79
2021/12/13 10:41:56;;;;;;;3.60;2.53;;;;;;;10.30;65.66;98375.09;4985243;28;20540;-79
2021/12/13 10:44:27;;;;;;;2.80;2.10;;;;;;;10.32;65.99;98377.53;4987906;28;20200;-79
2021/12/13 10:46:58;;;;;;;4.40;3.20;;;;;;;10.23;65.65;98369.94;4987350;28;20170;-79
2021/12/13 10:49:25;;;;;;;4.47;3.17;;;;;;;10.32;65.82;98373.13;4997933;28;20756;-79
2021/12/13 10:52:05;;;;;;;2.70;2.28;;;;;;;10.26;66.00;98363.50;4994994;28;20264;-79
2021/12/13 10:54:36;;;;;;;2.95;1.90;;;;;;;10.36;66.04;98363.84;4984771;28;20224;-79
2021/12/13 10:57:25;;;;;;;3.95;2.42;;;;;;;10.24;66.43;98370.75;5005939;28;20233;-79
2021/12/13 10:59:51;;;;;;;3.53;2.15;;;;;;;10.53;66.10;98365.94;4997952;28;20218;-79
2021/12/13 11:02:21;;;;;;;3.28;2.22;;;;;;;10.49;66.10;98366.34;5003422;28;20545;-79
2021/12/13 11:04:52;;;;;;;3.55;2.42;;;;;;;10.58;65.61;98363.47;5002258;28;20205;-78
2021/12/13 11:07:18;;;;;;;2.90;2.20;;;;;;;10.64;65.67;98366.03;4994751;28;20174;-78
2021/12/13 11:09:45;;;;;;;4.55;3.05;;;;;;;10.59;66.11;98363.28;4996174;28;20327;-79
2021/12/13 11:12:28;;;;;;;3.85;2.08;;;;;;;10.47;66.36;98362.38;4983167;28;20197;-79
2021/12/13 11:14:56;;;;;;;3.95;2.92;;;;;;;10.71;65.98;98357.34;4969731;28;20281;-79
2021/12/13 11:17:24;;;;;;;5.50;3.60;;;;;;;10.71;66.16;98347.72;5002918;28;20317;-79
2021/12/13 11:19:58;;;;;;;5.07;3.22;;;;;;;10.73;66.11;98355.31;5018809;28;20249;-79
2021/12/13 11:22:27;;;;;;;5.38;3.58;;;;;;;10.66;66.17;98345.75;4984896;28;20482;-79
2021/12/13 11:24:57;;;;;;;4.78;3.40;;;;;;;10.83;65.93;98347.78;4994437;28;20267;-79
2021/12/13 11:27:27;;;;;;;4.80;3.10;;;;;;;10.84;66.15;98344.19;4996947;28;20185;-79
2021/12/13 11:29:53;;;;;;;4.75;3.42;;;;;;;10.91;65.94;98344.13;4995504;28;20173;-79
2021/12/13 11:32:40;;;;;;;6.40;4.50;;;;;;;10.78;66.58;98339.81;5001832;28;20209;-79
2021/12/13 11:35:08;;;;;;;5.45;4.30;;;;;;;10.83;66.24;98343.41;5009827;28;20209;-79
2021/12/13 11:37:59;;;;;;;6.10;4.32;;;;;;;10.78;66.18;98340.63;5004269;28;20648;-79
2021/12/13 11:40:44;;;;;;;11.63;7.20;;;;;;;10.78;66.57;98339.81;4982637;28;20296;-79
2021/12/13 11:43:34;;;;;;;12.38;6.15;;;;;;;10.94;66.78;98333.25;5002046;28;20158;-79
2021/12/13 11:46:37;;;;;;;7.28;4.38;;;;;;;10.88;66.64;98334.91;5007603;28;20758;-78
2021/12/13 11:49:14;;;;;;;6.13;4.18;;;;;;;10.97;66.57;98338.84;4987614;28;20188;-79
2021/12/13 11:52:29;;;;;;;5.10;3.90;;;;;;;10.96;66.85;98339.84;4992864;28;20307;-79
2021/12/13 11:55:13;;;;;;;4.70;3.10;;;;;;;11.15;66.24;98337.22;4984593;28;20576;-79
2021/12/13 11:58:16;;;;;;;4.68;3.20;;;;;;;11.18;66.35;98331.56;5002498;28;20189;-79
2021/12/13 12:01:00;;;;;;;4.50;3.15;;;;;;;11.22;66.18;98336.13;5002099;28;20711;-79
2021/12/13 12:04:03;;;;;;;4.57;3.30;;;;;;;11.24;66.15;98328.88;5004857;28;20288;-79
2021/12/13 12:06:44;;;;;;;4.75;2.95;;;;;;;11.41;65.84;98323.03;5000498;28;20181;-79
2021/12/13 12:09:30;;;;;;;5.38;3.67;;;;;;;11.35;65.92;98321.34;5002808;28;20715;-79
2021/12/13 12:12:03;;;;;;;4.20;3.08;;;;;;;11.39;65.99;98325.09;4998180;28;20285;-79
2021/12/13 12:14:29;;;;;;;4.82;3.30;;;;;;;11.58;66.17;98334.47;5002358;28;20262;-79
2021/12/13 12:16:57;;;;;;;5.00;3.40;;;;;;;11.56;66.21;98330.47;5003582;28;20187;-80
2021/12/13 12:19:26;;;;;;;7.90;5.03;;;;;;;11.51;65.59;98314.69;4965810;28;20183;-79
2021/12/13 12:21:57;;;;;;;4.95;4.03;;;;;;;11.45;66.32;98303.34;4995933;28;20185;-80
2021/12/13 12:24:35;;;;;;;5.32;3.90;;;;;;;11.37;66.51;98312.25;5004524;28;20213;-79
2021/12/13 12:27:08;;;;;;;5.57;4.40;;;;;;;11.55;66.75;98306.22;4990320;28;20174;-79
2021/12/13 12:29:41;;;;;;;7.65;5.05;;;;;;;11.59;66.13;98314.41;5003372;28;20246;-79